Sadan Bayraktar — TCRB — position and weather

sailwx.info

Track history (hours):
 
Tides and Currents Weather Stations Pressure Air Temp Water Temp Dewpoint Dewpoint Depression Visibility Wind Speed Wind Dir Waves Ship Positions

Sadan Bayraktar

Last reported at 2014-Jul-22 00:33 UTC. Time now 2014-Aug-20 16:36 UTC.
Position N 44°30' E 036°10'.
Warning: this ship's position is 29 days out of date.

Length 116 m; draft 5.4 m.

Type: Cargo ship. MMSI: 271000653.

Date/timePositionNaut miles runAvg speedWind from/ knotsBaromVisibWave heightAir tempDewpointWater temp
2014-Jul-22 00:33N 44°30' E 036°10'1212.2
2014-Jul-21 23:33N 44°20' E 035°58'1212.5
2014-Jul-21 22:33N 44°11' E 035°47'1212.4
2014-Jul-21 21:33N 44°02' E 035°36'1212.0
2014-Jul-21 20:33N 43°52' E 035°26'312.0
2014-Jul-21 20:18N 43°50' E 035°23'912.0
2014-Jul-21 19:31N 43°43' E 035°14'1612.3
2014-Jul-21 18:16N 43°32' E 034°59'912.6
2014-Jul-21 17:34N 43°25' E 034°51'1312.9
2014-Jul-21 16:34N 43°15' E 034°40'1312.6
2014-Jul-21 15:34N 43°06' E 034°28'  
2014-Jul-18 11:27N 41°15' E 029°20'3 3.3
2014-Jul-18 10:33N 41°14' E 029°23'0 0.0
2014-Jul-18 09:30N 41°14' E 029°23'0 0.0
2014-Jul-18 08:33N 41°14' E 029°23'0 0.0
2014-Jul-18 07:32N 41°14' E 029°23'  
Track history (hours):
 
Tides and Currents Weather Stations Pressure Air Temp Water Temp Dewpoint Dewpoint Depression Visibility Wind Speed Wind Dir Waves Ship Positions

Sadan Bayraktar

Last reported at 2014-Jul-22 00:33 UTC. Time now 2014-Aug-20 16:36 UTC.
Position N 44°30' E 036°10'.
Warning: this ship's position is 29 days out of date.

Length 116 m; draft 5.4 m.

Type: Cargo ship. MMSI: 271000653.

Date/timePositionNaut miles runAvg speedWind from/ knotsBaromVisibWave heightAir tempDewpointWater temp
2014-Jul-22 00:33N 44°30' E 036°10'1212.2
2014-Jul-21 23:33N 44°20' E 035°58'1212.5
2014-Jul-21 22:33N 44°11' E 035°47'1212.4
2014-Jul-21 21:33N 44°02' E 035°36'1212.0
2014-Jul-21 20:33N 43°52' E 035°26'312.0
2014-Jul-21 20:18N 43°50' E 035°23'912.0
2014-Jul-21 19:31N 43°43' E 035°14'1612.3
2014-Jul-21 18:16N 43°32' E 034°59'912.6
2014-Jul-21 17:34N 43°25' E 034°51'1312.9
2014-Jul-21 16:34N 43°15' E 034°40'1312.6
2014-Jul-21 15:34N 43°06' E 034°28'  
2014-Jul-18 11:27N 41°15' E 029°20'3 3.3
2014-Jul-18 10:33N 41°14' E 029°23'0 0.0
2014-Jul-18 09:30N 41°14' E 029°23'0 0.0
2014-Jul-18 08:33N 41°14' E 029°23'0 0.0
2014-Jul-18 07:32N 41°14' E 029°23'  

Dump ship's entire track history